createdAt,value
2019-05-10T00:02:59.984Z,42.10
2019-05-10T00:08:21.651Z,39.83
2019-05-10T00:13:27.116Z,40.75
2019-05-10T00:18:31.117Z,48.25
2019-05-10T00:23:34.918Z,44.18
2019-05-10T00:28:38.908Z,38.08
2019-05-10T00:33:42.796Z,38.42
2019-05-10T00:38:46.671Z,43.38
2019-05-10T00:43:50.553Z,38.13
2019-05-10T00:48:54.450Z,40.50
2019-05-10T00:53:58.317Z,44.08
2019-05-10T00:59:02.201Z,41.25
2019-05-10T01:04:06.072Z,35.75
2019-05-10T01:09:11.524Z,37.85
2019-05-10T01:14:15.394Z,40.88
2019-05-10T01:19:19.274Z,40.83
2019-05-10T01:24:23.256Z,52.80
2019-05-10T01:29:27.134Z,44.08
2019-05-10T01:34:31.020Z,51.98
2019-05-10T01:39:34.901Z,39.53
2019-05-10T01:44:38.776Z,34.20
2019-05-10T01:49:42.658Z,27.02
2019-05-10T01:54:46.568Z,38.88
2019-05-10T01:59:50.491Z,26.02
2019-05-10T02:04:54.409Z,27.50
2019-05-10T02:09:58.321Z,30.43
2019-05-10T02:15:02.250Z,30.15
2019-05-10T02:20:07.178Z,26.85
2019-05-10T02:25:11.211Z,29.67
2019-05-10T02:30:15.443Z,26.68
2019-05-10T02:35:19.658Z,25.08
2019-05-10T02:40:23.582Z,25.92
2019-05-10T02:45:27.497Z,26.07
2019-05-10T02:50:31.434Z,24.87
2019-05-10T02:55:36.161Z,25.95
2019-05-10T03:00:41.794Z,25.35
2019-05-10T03:05:48.660Z,29.35
2019-05-10T03:10:58.338Z,26.97
2019-05-10T03:16:03.073Z,28.85
2019-05-10T03:21:09.656Z,29.55
2019-05-10T03:26:13.564Z,25.23
2019-05-10T03:31:17.492Z,26.33
2019-05-10T03:36:21.414Z,26.25
2019-05-10T03:41:25.275Z,25.57
2019-05-10T03:46:29.204Z,29.57
2019-05-10T03:51:33.113Z,35.00
2019-05-10T03:56:37.036Z,28.70
2019-05-10T04:01:40.969Z,28.90
2019-05-10T04:06:44.897Z,27.70
2019-05-10T04:11:48.803Z,27.80
2019-05-10T04:16:52.738Z,33.55
2019-05-10T04:21:56.658Z,39.73
2019-05-10T04:27:00.578Z,31.42
2019-05-10T04:32:04.490Z,29.40
2019-05-10T04:37:08.394Z,26.35
2019-05-10T04:42:12.254Z,30.65
2019-05-10T04:47:16.139Z,27.98
2019-05-10T04:52:20.016Z,20.95
2019-05-10T04:57:24.186Z,22.75
2019-05-10T05:02:28.097Z,23.65
2019-05-10T05:07:32.003Z,29.85
2019-05-10T05:12:35.889Z,27.62
2019-05-10T05:17:39.766Z,27.93
2019-05-10T05:22:43.644Z,31.70
2019-05-10T05:27:47.568Z,36.93
2019-05-10T05:32:51.451Z,42.58
2019-05-10T05:37:55.341Z,60.03
2019-05-10T05:43:02.544Z,51.75
2019-05-10T05:48:04.747Z,49.65
2019-05-10T05:53:08.626Z,46.58
2019-05-10T05:58:25.840Z,42.60
2019-05-10T06:03:27.113Z,41.25
2019-05-10T06:08:25.049Z,35.90
2019-05-10T06:13:32.248Z,34.50
2019-05-10T06:18:34.695Z,31.70
2019-05-10T06:23:38.768Z,28.32
2019-05-10T06:28:58.207Z,25.52
2019-05-10T06:33:48.206Z,24.63
2019-05-10T06:38:52.089Z,23.35
2019-05-10T06:43:55.974Z,15.93
2019-05-10T06:49:07.606Z,17.48
2019-05-10T06:54:05.393Z,22.60
2019-05-10T06:59:13.598Z,15.32
2019-05-10T07:04:14.814Z,14.58
2019-05-10T07:09:18.699Z,14.13
2019-05-10T07:14:25.585Z,15.18
2019-05-10T07:19:28.904Z,13.85
2019-05-10T07:24:32.976Z,16.00
2019-05-10T07:29:42.970Z,12.93
2019-05-10T07:34:42.406Z,9.63
2019-05-10T07:39:46.284Z,7.45
2019-05-10T07:44:50.157Z,5.67
2019-05-10T07:49:54.063Z,9.35
2019-05-10T07:54:57.938Z,5.37
2019-05-10T08:00:03.597Z,6.30
2019-05-10T08:05:11.001Z,8.20
2019-05-10T08:10:13.783Z,7.95
2019-05-10T08:15:19.528Z,8.23
2019-05-10T08:20:38.342Z,10.15
2019-05-10T08:25:34.854Z,7.33
2019-05-10T08:30:51.710Z,9.20
2019-05-10T08:35:46.696Z,7.35
2019-05-10T08:40:52.730Z,7.62
2019-05-10T08:45:57.974Z,9.10
2019-05-10T08:51:05.629Z,10.60
2019-05-10T08:56:12.975Z,8.40
2019-05-10T09:01:25.816Z,11.65
2019-05-10T09:06:18.858Z,5.25
2019-05-10T09:11:23.204Z,3.65
2019-05-10T09:16:29.227Z,4.83
2019-05-10T09:21:32.699Z,10.48
2019-05-10T09:26:36.578Z,9.28
2019-05-10T09:31:46.058Z,9.25
2019-05-10T09:36:47.127Z,6.67
2019-05-10T09:41:52.798Z,6.72
2019-05-10T09:46:56.918Z,3.95
2019-05-10T09:52:04.626Z,5.65
2019-05-10T09:57:08.187Z,3.60
2019-05-10T10:02:18.263Z,7.45
2019-05-10T10:07:19.005Z,5.03
2019-05-10T10:12:23.082Z,3.85
2019-05-10T10:17:27.492Z,5.17
2019-05-10T10:22:32.474Z,4.03
2019-05-10T10:27:39.315Z,7.28
2019-05-10T10:32:44.503Z,6.53
2019-05-10T10:37:47.653Z,5.05
2019-05-10T10:42:51.526Z,7.55
2019-05-10T10:47:57.316Z,7.62
2019-05-10T10:53:01.030Z,6.75
2019-05-10T10:58:07.166Z,10.65
2019-05-10T11:03:10.462Z,7.12
2019-05-10T11:08:14.360Z,8.68
2019-05-10T11:13:29.015Z,6.42
2019-05-10T11:18:24.040Z,8.78
2019-05-10T11:23:34.086Z,8.08
2019-05-10T11:28:38.832Z,5.30
2019-05-10T11:33:41.548Z,4.97
2019-05-10T11:38:47.046Z,6.33
2019-05-10T11:43:50.097Z,8.48
2019-05-10T11:48:53.985Z,5.08
2019-05-10T11:53:59.628Z,7.42
2019-05-10T11:59:05.266Z,6.62
2019-05-10T12:04:13.057Z,7.20
2019-05-10T12:09:14.562Z,5.70
2019-05-10T12:14:18.444Z,6.70
2019-05-10T12:19:22.424Z,5.65
2019-05-10T12:24:45.212Z,6.70
2019-05-10T12:29:31.946Z,10.63
2019-05-10T12:34:35.836Z,7.25
2019-05-10T12:39:39.870Z,3.80
2019-05-10T12:44:47.910Z,4.25
2019-05-10T12:49:53.889Z,4.80
2019-05-10T12:54:56.905Z,3.70
2019-05-10T13:00:06.674Z,4.30
2019-05-10T13:05:07.785Z,5.40
2019-05-10T13:10:13.871Z,2.67
2019-05-10T13:15:18.392Z,0.93
2019-05-10T13:20:22.699Z,1.07
2019-05-10T13:25:26.673Z,1.25
2019-05-10T13:30:30.577Z,2.15
2019-05-10T13:35:34.518Z,1.30
2019-05-10T13:40:45.564Z,1.95
2019-05-10T13:45:48.165Z,4.47
2019-05-10T13:50:52.095Z,7.22
2019-05-10T13:55:58.100Z,2.40
2019-05-10T14:01:06.676Z,5.62
2019-05-10T14:06:07.722Z,2.52
2019-05-10T14:11:11.771Z,3.25
2019-05-10T14:16:19.498Z,3.67
2019-05-10T14:21:21.387Z,5.03
2019-05-10T14:26:25.295Z,2.15
2019-05-10T14:31:29.225Z,1.27
2019-05-10T14:36:34.038Z,1.07
2019-05-10T14:41:40.056Z,3.02
2019-05-10T14:46:44.323Z,1.87
2019-05-10T14:51:58.552Z,2.55
2019-05-10T14:56:54.282Z,3.47
2019-05-10T15:01:58.589Z,5.97
2019-05-10T15:07:02.476Z,6.00
2019-05-10T15:12:10.239Z,3.30
2019-05-10T15:17:11.974Z,5.40
2019-05-10T15:22:18.371Z,4.58
2019-05-10T15:27:22.086Z,3.42
2019-05-10T15:32:27.110Z,3.55
2019-05-10T15:37:31.038Z,2.40
2019-05-10T15:42:36.128Z,4.28
2019-05-10T15:47:50.599Z,2.90
2019-05-10T15:52:48.512Z,1.77
2019-05-10T15:57:57.557Z,2.00
2019-05-10T16:02:58.915Z,4.55
2019-05-10T16:08:02.830Z,2.70
2019-05-10T16:13:06.766Z,2.92
2019-05-10T16:18:10.652Z,3.52
2019-05-10T16:23:14.545Z,13.68
2019-05-10T16:28:20.828Z,25.70
2019-05-10T16:33:24.906Z,9.83
2019-05-10T16:38:28.903Z,2.83
2019-05-10T16:43:32.834Z,7.10
2019-05-10T16:48:36.753Z,3.70
2019-05-10T16:53:43.710Z,3.25
2019-05-10T16:58:47.748Z,10.25
2019-05-10T17:03:59.665Z,25.35
2019-05-10T17:08:57.482Z,16.50
2019-05-10T17:14:01.486Z,10.25
2019-05-10T17:19:05.463Z,10.20
2019-05-10T17:24:09.552Z,12.18
2019-05-10T17:29:14.753Z,4.03
2019-05-10T17:34:27.612Z,5.65
2019-05-10T17:39:26.052Z,7.78
2019-05-10T17:44:29.991Z,4.30
2019-05-10T17:49:33.871Z,6.42
2019-05-10T17:54:39.153Z,10.05
2019-05-10T17:59:47.003Z,5.58
2019-05-10T18:04:48.842Z,14.13
2019-05-10T18:09:52.733Z,11.88
2019-05-10T18:14:57.686Z,14.45
2019-05-10T18:20:04.008Z,60.20
2019-05-10T18:25:07.597Z,36.90
2019-05-10T18:30:11.804Z,22.45
2019-05-10T18:35:16.998Z,43.33
2019-05-10T18:40:25.290Z,62.00
2019-05-10T18:45:28.644Z,58.63
2019-05-10T18:50:32.340Z,31.90
2019-05-10T18:55:36.243Z,32.75
2019-05-10T19:00:40.339Z,28.92
2019-05-10T19:05:44.419Z,26.93
2019-05-10T19:10:48.367Z,28.98
2019-05-10T19:15:57.753Z,29.52
2019-05-10T19:20:58.289Z,29.32
2019-05-10T19:26:02.536Z,63.52
2019-05-10T19:31:06.657Z,119.40
2019-05-10T19:36:13.108Z,127.95
2019-05-10T19:41:20.246Z,43.78
2019-05-10T19:46:22.335Z,60.10
2019-05-10T19:51:28.263Z,47.03
2019-05-10T19:56:36.562Z,40.92
2019-05-10T20:01:38.671Z,51.77
2019-05-10T20:06:42.854Z,27.90
2019-05-10T20:11:46.885Z,75.00
2019-05-10T20:16:53.601Z,97.15
2019-05-10T20:22:00.931Z,93.07
2019-05-10T20:27:06.391Z,64.85
2019-05-10T20:32:10.473Z,55.65
2019-05-10T20:37:14.375Z,57.55
2019-05-10T20:42:18.485Z,37.95
2019-05-10T20:47:22.409Z,37.13
2019-05-10T20:52:26.266Z,31.70
2019-05-10T20:57:30.161Z,25.00
2019-05-10T21:02:34.048Z,32.15
2019-05-10T21:07:38.078Z,28.65
2019-05-10T21:12:42.031Z,20.82
2019-05-10T21:17:45.950Z,22.95
2019-05-10T21:22:49.827Z,25.92
2019-05-10T21:27:53.714Z,24.00
2019-05-10T21:32:57.621Z,24.30
2019-05-10T21:38:01.508Z,24.82
2019-05-10T21:43:05.477Z,25.02
2019-05-10T21:48:09.396Z,40.03
2019-05-10T21:53:13.443Z,30.75
2019-05-10T21:58:17.768Z,34.55
2019-05-10T22:03:21.813Z,32.98
2019-05-10T22:08:25.832Z,32.17
2019-05-10T22:13:29.804Z,41.25
2019-05-10T22:18:33.799Z,38.92
2019-05-10T22:23:37.772Z,34.53
2019-05-10T22:28:41.677Z,38.35
2019-05-10T22:33:45.607Z,33.10
2019-05-10T22:39:05.693Z,32.55
2019-05-10T22:43:55.291Z,29.50
2019-05-10T22:48:59.182Z,29.42
2019-05-10T22:54:03.060Z,23.18
2019-05-10T22:59:06.950Z,20.85
2019-05-10T23:04:10.866Z,22.22
2019-05-10T23:09:23.941Z,20.52
2019-05-10T23:14:20.293Z,16.77
2019-05-10T23:19:24.219Z,17.77
2019-05-10T23:24:39.147Z,16.37
2019-05-10T23:29:43.030Z,17.27
2019-05-10T23:34:46.931Z,22.02
2019-05-10T23:39:50.826Z,15.80
2019-05-10T23:44:54.694Z,22.17
2019-05-10T23:49:58.610Z,21.27
2019-05-10T23:55:02.494Z,17.50
